createdAt,value
2022-11-03T20:13:48.461Z,12.50
2022-11-03T20:16:17.201Z,12.46
2022-11-03T20:18:44.032Z,12.45
2022-11-03T20:21:17.901Z,12.47
2022-11-03T20:23:45.487Z,12.47
2022-11-03T20:26:15.474Z,12.48
2022-11-03T20:28:42.223Z,12.41
2022-11-03T20:31:09.283Z,12.43
2022-11-03T20:33:36.263Z,12.38
2022-11-03T20:36:04.528Z,12.37
2022-11-03T20:38:32.507Z,12.37
2022-11-03T20:41:03.813Z,12.34
2022-11-03T20:43:38.790Z,12.35
2022-11-03T20:46:25.151Z,12.37
2022-11-03T20:48:52.508Z,12.36
2022-11-03T20:51:22.525Z,12.32
2022-11-03T20:53:49.445Z,12.35
2022-11-03T20:56:22.238Z,12.35
2022-11-03T20:58:49.810Z,12.38
2022-11-03T21:01:20.001Z,12.38
2022-11-03T21:03:59.251Z,12.40
2022-11-03T21:06:28.773Z,12.39
2022-11-03T21:08:55.677Z,12.41
2022-11-03T21:11:28.188Z,12.43
2022-11-03T21:14:04.725Z,12.46
2022-11-03T21:16:50.494Z,12.48
2022-11-03T21:19:58.579Z,12.42
2022-11-03T21:22:53.867Z,12.47
2022-11-03T21:25:23.468Z,12.50
2022-11-03T21:27:50.804Z,12.49
2022-11-03T21:30:18.290Z,12.51
2022-11-03T21:32:45.658Z,12.48
2022-11-03T21:35:17.724Z,12.54
2022-11-03T21:37:44.380Z,12.55
2022-11-03T21:40:11.695Z,12.56
2022-11-03T21:42:56.931Z,12.53
2022-11-03T21:45:23.467Z,12.51
2022-11-03T21:48:13.204Z,12.52
2022-11-03T21:50:40.385Z,12.52
2022-11-03T21:53:07.805Z,12.50
2022-11-03T21:55:34.839Z,12.52
2022-11-03T21:58:02.990Z,12.51
2022-11-03T22:00:30.038Z,12.56
2022-11-03T22:02:56.598Z,12.54
2022-11-03T22:05:23.606Z,12.54
2022-11-03T22:07:50.581Z,12.53
2022-11-03T22:10:17.975Z,12.54
2022-11-03T22:12:44.832Z,12.53
2022-11-03T22:15:29.585Z,12.54
2022-11-03T22:18:04.388Z,12.50
2022-11-03T22:20:49.583Z,12.48
2022-11-03T22:23:34.858Z,12.44
2022-11-03T22:26:20.329Z,12.44
2022-11-03T22:29:06.911Z,12.43
2022-11-03T22:31:42.275Z,12.41
2022-11-03T22:34:27.503Z,12.45
2022-11-03T22:36:54.034Z,12.45
2022-11-03T22:39:39.296Z,12.47
2022-11-03T22:42:24.290Z,12.48
2022-11-03T22:45:09.244Z,12.41
2022-11-03T22:47:38.373Z,12.38
2022-11-03T22:50:05.170Z,12.39
2022-11-03T22:52:31.700Z,12.42
2022-11-03T22:54:58.240Z,12.41
2022-11-03T22:57:24.794Z,12.36
2022-11-03T22:59:51.817Z,12.27
2022-11-03T23:02:18.468Z,12.22
2022-11-03T23:04:46.248Z,12.18
2022-11-03T23:07:12.821Z,12.17
2022-11-03T23:09:39.357Z,12.14
2022-11-03T23:12:06.161Z,12.13
2022-11-03T23:14:52.645Z,12.09
2022-11-03T23:17:19.257Z,12.02
2022-11-03T23:20:04.595Z,12.04
2022-11-03T23:22:31.120Z,11.99
2022-11-03T23:25:00.929Z,11.95
2022-11-03T23:27:28.155Z,11.92
2022-11-03T23:29:54.668Z,11.91
2022-11-03T23:32:21.625Z,11.92
2022-11-03T23:34:48.635Z,11.91
2022-11-03T23:37:15.524Z,11.90
2022-11-03T23:39:42.305Z,11.81
2022-11-03T23:42:08.995Z,11.83
2022-11-03T23:44:55.564Z,11.79
2022-11-03T23:47:40.659Z,11.76
2022-11-03T23:50:07.632Z,11.79
2022-11-03T23:52:34.202Z,11.78
2022-11-03T23:55:00.951Z,11.73
2022-11-03T23:57:46.658Z,11.72
